sensor_id;sensor_type;location;lat;lon;timestamp;temperature;humidity
20081;DHT22;10200;49.232;9.222;2024-02-14T00:01:05;5.10;99.90
20081;DHT22;10200;49.232;9.222;2024-02-14T00:03:34;5.20;99.90
20081;DHT22;10200;49.232;9.222;2024-02-14T00:06:00;5.20;99.90
20081;DHT22;10200;49.232;9.222;2024-02-14T00:08:25;5.10;99.90
20081;DHT22;10200;49.232;9.222;2024-02-14T00:10:51;5.20;99.90
20081;DHT22;10200;49.232;9.222;2024-02-14T00:13:16;5.10;99.90
20081;DHT22;10200;49.232;9.222;2024-02-14T00:15:43;5.10;99.90
20081;DHT22;10200;49.232;9.222;2024-02-14T00:18:09;5.20;99.90
20081;DHT22;10200;49.232;9.222;2024-02-14T00:20:35;5.10;99.90
20081;DHT22;10200;49.232;9.222;2024-02-14T00:23:01;5.20;99.90
20081;DHT22;10200;49.232;9.222;2024-02-14T00:25:27;5.20;99.90
20081;DHT22;10200;49.232;9.222;2024-02-14T00:27:52;5.20;99.90
20081;DHT22;10200;49.232;9.222;2024-02-14T00:30:19;5.20;99.90
20081;DHT22;10200;49.232;9.222;2024-02-14T00:32:46;5.20;99.90
20081;DHT22;10200;49.232;9.222;2024-02-14T00:35:11;5.10;99.90
20081;DHT22;10200;49.232;9.222;2024-02-14T00:37:37;5.00;99.90
20081;DHT22;10200;49.232;9.222;2024-02-14T00:40:03;4.90;99.90
20081;DHT22;10200;49.232;9.222;2024-02-14T00:42:29;4.90;99.90
20081;DHT22;10200;49.232;9.222;2024-02-14T00:44:54;4.90;99.90
20081;DHT22;10200;49.232;9.222;2024-02-14T00:47:20;4.90;99.90
20081;DHT22;10200;49.232;9.222;2024-02-14T00:49:45;4.90;99.90
20081;DHT22;10200;49.232;9.222;2024-02-14T00:52:11;4.90;99.90
20081;DHT22;10200;49.232;9.222;2024-02-14T00:54:37;4.90;99.90
20081;DHT22;10200;49.232;9.222;2024-02-14T00:57:03;4.90;99.90
20081;DHT22;10200;49.232;9.222;2024-02-14T00:59:29;4.90;99.90
20081;DHT22;10200;49.232;9.222;2024-02-14T01:01:54;4.80;99.90
20081;DHT22;10200;49.232;9.222;2024-02-14T01:04:20;4.80;99.90
20081;DHT22;10200;49.232;9.222;2024-02-14T01:06:45;4.80;99.90
20081;DHT22;10200;49.232;9.222;2024-02-14T01:09:11;4.80;99.90
20081;DHT22;10200;49.232;9.222;2024-02-14T01:11:36;4.90;99.90
20081;DHT22;10200;49.232;9.222;2024-02-14T01:14:03;4.80;99.90
20081;DHT22;10200;49.232;9.222;2024-02-14T01:16:29;4.80;99.90
20081;DHT22;10200;49.232;9.222;2024-02-14T01:18:55;4.90;99.90
20081;DHT22;10200;49.232;9.222;2024-02-14T01:21:20;5.00;99.90
20081;DHT22;10200;49.232;9.222;2024-02-14T01:23:46;5.00;99.90
20081;DHT22;10200;49.232;9.222;2024-02-14T01:26:12;5.00;99.90
20081;DHT22;10200;49.232;9.222;2024-02-14T01:28:37;5.00;99.90
20081;DHT22;10200;49.232;9.222;2024-02-14T01:31:03;5.00;99.90
20081;DHT22;10200;49.232;9.222;2024-02-14T01:33:29;5.00;99.90
20081;DHT22;10200;49.232;9.222;2024-02-14T01:35:56;5.10;99.90
20081;DHT22;10200;49.232;9.222;2024-02-14T01:38:23;5.10;99.90
20081;DHT22;10200;49.232;9.222;2024-02-14T01:40:48;5.10;99.90
20081;DHT22;10200;49.232;9.222;2024-02-14T01:43:14;5.20;99.90
20081;DHT22;10200;49.232;9.222;2024-02-14T01:45:40;5.20;99.90
20081;DHT22;10200;49.232;9.222;2024-02-14T01:48:07;5.30;99.90
20081;DHT22;10200;49.232;9.222;2024-02-14T01:50:34;5.30;99.90
20081;DHT22;10200;49.232;9.222;2024-02-14T01:53:00;5.30;99.90
20081;DHT22;10200;49.232;9.222;2024-02-14T01:55:29;5.20;99.90
20081;DHT22;10200;49.232;9.222;2024-02-14T01:57:55;5.20;99.90
20081;DHT22;10200;49.232;9.222;2024-02-14T02:00:21;5.20;99.90
20081;DHT22;10200;49.232;9.222;2024-02-14T02:02:47;5.20;99.90
20081;DHT22;10200;49.232;9.222;2024-02-14T02:05:13;5.10;99.90
20081;DHT22;10200;49.232;9.222;2024-02-14T02:07:39;5.10;99.90
20081;DHT22;10200;49.232;9.222;2024-02-14T02:10:09;5.20;99.90
20081;DHT22;10200;49.232;9.222;2024-02-14T02:12:34;5.20;99.90
20081;DHT22;10200;49.232;9.222;2024-02-14T02:15:02;5.20;99.90
20081;DHT22;10200;49.232;9.222;2024-02-14T02:17:28;5.20;99.90
20081;DHT22;10200;49.232;9.222;2024-02-14T02:19:54;5.30;99.90
20081;DHT22;10200;49.232;9.222;2024-02-14T02:22:20;5.30;99.90
20081;DHT22;10200;49.232;9.222;2024-02-14T02:24:45;5.30;99.90
20081;DHT22;10200;49.232;9.222;2024-02-14T02:27:12;5.30;99.90
20081;DHT22;10200;49.232;9.222;2024-02-14T02:29:39;5.30;99.90
20081;DHT22;10200;49.232;9.222;2024-02-14T02:32:05;5.30;99.90
20081;DHT22;10200;49.232;9.222;2024-02-14T02:34:31;5.30;99.90
20081;DHT22;10200;49.232;9.222;2024-02-14T02:36:57;5.30;99.90
20081;DHT22;10200;49.232;9.222;2024-02-14T02:39:22;5.30;99.90
20081;DHT22;10200;49.232;9.222;2024-02-14T02:41:48;5.40;99.90
20081;DHT22;10200;49.232;9.222;2024-02-14T02:44:15;5.30;99.90
20081;DHT22;10200;49.232;9.222;2024-02-14T02:46:41;5.30;99.90
20081;DHT22;10200;49.232;9.222;2024-02-14T02:49:06;5.40;99.90
20081;DHT22;10200;49.232;9.222;2024-02-14T02:51:32;5.40;99.90
20081;DHT22;10200;49.232;9.222;2024-02-14T02:53:57;5.40;99.90
20081;DHT22;10200;49.232;9.222;2024-02-14T02:56:23;5.50;99.90
20081;DHT22;10200;49.232;9.222;2024-02-14T02:58:54;5.50;99.90
20081;DHT22;10200;49.232;9.222;2024-02-14T03:01:19;5.50;99.90
20081;DHT22;10200;49.232;9.222;2024-02-14T03:03:45;5.50;99.90
20081;DHT22;10200;49.232;9.222;2024-02-14T03:06:10;5.40;99.90
20081;DHT22;10200;49.232;9.222;2024-02-14T03:08:37;5.40;99.90
20081;DHT22;10200;49.232;9.222;2024-02-14T03:11:08;5.40;99.90
20081;DHT22;10200;49.232;9.222;2024-02-14T03:13:33;5.50;99.90
20081;DHT22;10200;49.232;9.222;2024-02-14T03:16:01;5.50;99.90
20081;DHT22;10200;49.232;9.222;2024-02-14T03:18:26;5.50;99.90
20081;DHT22;10200;49.232;9.222;2024-02-14T03:20:52;5.50;99.90
20081;DHT22;10200;49.232;9.222;2024-02-14T03:23:19;5.50;99.90
20081;DHT22;10200;49.232;9.222;2024-02-14T03:25:45;5.50;99.90
20081;DHT22;10200;49.232;9.222;2024-02-14T03:28:10;5.60;99.90
20081;DHT22;10200;49.232;9.222;2024-02-14T03:30:38;5.50;99.90
20081;DHT22;10200;49.232;9.222;2024-02-14T03:33:05;5.60;99.90
20081;DHT22;10200;49.232;9.222;2024-02-14T03:35:31;5.60;99.90
20081;DHT22;10200;49.232;9.222;2024-02-14T03:37:56;5.60;99.90
20081;DHT22;10200;49.232;9.222;2024-02-14T03:40:22;5.60;99.90
20081;DHT22;10200;49.232;9.222;2024-02-14T03:42:48;5.50;99.90
20081;DHT22;10200;49.232;9.222;2024-02-14T03:45:14;5.60;99.90
20081;DHT22;10200;49.232;9.222;2024-02-14T03:47:39;5.50;99.90
20081;DHT22;10200;49.232;9.222;2024-02-14T03:50:06;5.60;99.90
20081;DHT22;10200;49.232;9.222;2024-02-14T03:52:32;5.60;99.90
20081;DHT22;10200;49.232;9.222;2024-02-14T03:54:59;5.60;99.90
20081;DHT22;10200;49.232;9.222;2024-02-14T03:57:26;5.60;99.90
20081;DHT22;10200;49.232;9.222;2024-02-14T03:59:57;5.60;99.90
20081;DHT22;10200;49.232;9.222;2024-02-14T04:02:22;5.60;99.90
20081;DHT22;10200;49.232;9.222;2024-02-14T04:04:53;5.60;99.90
20081;DHT22;10200;49.232;9.222;2024-02-14T04:07:19;5.60;99.90
20081;DHT22;10200;49.232;9.222;2024-02-14T04:09:44;5.60;99.90
20081;DHT22;10200;49.232;9.222;2024-02-14T04:12:10;5.60;99.90
20081;DHT22;10200;49.232;9.222;2024-02-14T04:14:36;5.60;99.90
20081;DHT22;10200;49.232;9.222;2024-02-14T04:17:03;5.60;99.90
20081;DHT22;10200;49.232;9.222;2024-02-14T04:19:29;5.60;99.90
20081;DHT22;10200;49.232;9.222;2024-02-14T04:21:54;5.60;99.90
20081;DHT22;10200;49.232;9.222;2024-02-14T04:24:20;5.60;99.90
20081;DHT22;10200;49.232;9.222;2024-02-14T04:26:46;5.60;99.90
20081;DHT22;10200;49.232;9.222;2024-02-14T04:29:13;5.70;99.90
20081;DHT22;10200;49.232;9.222;2024-02-14T04:31:39;5.70;99.90
20081;DHT22;10200;49.232;9.222;2024-02-14T04:34:04;5.80;99.90
20081;DHT22;10200;49.232;9.222;2024-02-14T04:36:33;5.80;99.90
20081;DHT22;10200;49.232;9.222;2024-02-14T04:39:01;5.80;99.90
20081;DHT22;10200;49.232;9.222;2024-02-14T04:41:26;5.80;99.90
20081;DHT22;10200;49.232;9.222;2024-02-14T04:43:52;5.80;99.90
20081;DHT22;10200;49.232;9.222;2024-02-14T04:46:18;5.80;99.90
20081;DHT22;10200;49.232;9.222;2024-02-14T04:48:43;5.80;99.90
20081;DHT22;10200;49.232;9.222;2024-02-14T04:51:09;5.80;99.90
20081;DHT22;10200;49.232;9.222;2024-02-14T04:53:35;5.80;99.90
20081;DHT22;10200;49.232;9.222;2024-02-14T04:56:01;5.80;99.90
20081;DHT22;10200;49.232;9.222;2024-02-14T04:58:26;5.80;99.90
20081;DHT22;10200;49.232;9.222;2024-02-14T05:00:52;5.90;99.90
20081;DHT22;10200;49.232;9.222;2024-02-14T05:03:19;5.90;99.90
20081;DHT22;10200;49.232;9.222;2024-02-14T05:05:44;5.90;99.90
20081;DHT22;10200;49.232;9.222;2024-02-14T05:08:10;6.00;99.90
20081;DHT22;10200;49.232;9.222;2024-02-14T05:10:35;6.00;99.90
20081;DHT22;10200;49.232;9.222;2024-02-14T05:13:01;6.10;99.90
20081;DHT22;10200;49.232;9.222;2024-02-14T05:15:27;6.00;99.90
20081;DHT22;10200;49.232;9.222;2024-02-14T05:17:53;6.10;99.90
20081;DHT22;10200;49.232;9.222;2024-02-14T05:20:18;6.10;99.90
20081;DHT22;10200;49.232;9.222;2024-02-14T05:22:44;6.00;99.90
20081;DHT22;10200;49.232;9.222;2024-02-14T05:25:10;6.10;99.90
20081;DHT22;10200;49.232;9.222;2024-02-14T05:27:36;6.00;99.90
20081;DHT22;10200;49.232;9.222;2024-02-14T05:30:03;6.00;99.90
20081;DHT22;10200;49.232;9.222;2024-02-14T05:32:32;6.00;99.90
20081;DHT22;10200;49.232;9.222;2024-02-14T05:34:58;5.90;99.90
20081;DHT22;10200;49.232;9.222;2024-02-14T05:37:23;5.90;99.90
20081;DHT22;10200;49.232;9.222;2024-02-14T05:39:49;5.90;99.90
20081;DHT22;10200;49.232;9.222;2024-02-14T05:42:15;6.00;99.90
20081;DHT22;10200;49.232;9.222;2024-02-14T05:44:42;6.00;99.90
20081;DHT22;10200;49.232;9.222;2024-02-14T05:47:08;6.00;99.90
20081;DHT22;10200;49.232;9.222;2024-02-14T05:49:35;6.10;99.90
20081;DHT22;10200;49.232;9.222;2024-02-14T05:52:01;6.20;99.90
20081;DHT22;10200;49.232;9.222;2024-02-14T05:54:26;6.20;99.90
20081;DHT22;10200;49.232;9.222;2024-02-14T05:56:52;6.30;99.90
20081;DHT22;10200;49.232;9.222;2024-02-14T05:59:17;6.30;99.90
20081;DHT22;10200;49.232;9.222;2024-02-14T06:01:43;6.40;99.90
20081;DHT22;10200;49.232;9.222;2024-02-14T06:04:09;6.40;99.90
20081;DHT22;10200;49.232;9.222;2024-02-14T06:06:34;6.40;99.90
20081;DHT22;10200;49.232;9.222;2024-02-14T06:09:00;6.40;99.90
20081;DHT22;10200;49.232;9.222;2024-02-14T06:11:25;6.40;99.90
20081;DHT22;10200;49.232;9.222;2024-02-14T06:13:51;6.40;99.90
20081;DHT22;10200;49.232;9.222;2024-02-14T06:16:17;6.40;99.90
20081;DHT22;10200;49.232;9.222;2024-02-14T06:18:42;6.50;99.90
20081;DHT22;10200;49.232;9.222;2024-02-14T06:21:08;6.50;99.90
20081;DHT22;10200;49.232;9.222;2024-02-14T06:23:34;6.50;99.90
20081;DHT22;10200;49.232;9.222;2024-02-14T06:26:00;6.50;99.90
20081;DHT22;10200;49.232;9.222;2024-02-14T06:28:25;6.50;99.90
20081;DHT22;10200;49.232;9.222;2024-02-14T06:30:51;6.60;99.90
20081;DHT22;10200;49.232;9.222;2024-02-14T06:33:16;6.60;99.90
20081;DHT22;10200;49.232;9.222;2024-02-14T06:35:42;6.60;99.90
20081;DHT22;10200;49.232;9.222;2024-02-14T06:38:07;6.60;99.90
20081;DHT22;10200;49.232;9.222;2024-02-14T06:40:33;6.60;99.90
20081;DHT22;10200;49.232;9.222;2024-02-14T06:42:59;6.50;99.90
20081;DHT22;10200;49.232;9.222;2024-02-14T06:45:28;6.50;99.90
20081;DHT22;10200;49.232;9.222;2024-02-14T06:47:54;6.50;99.90
20081;DHT22;10200;49.232;9.222;2024-02-14T06:50:20;6.50;99.90
20081;DHT22;10200;49.232;9.222;2024-02-14T06:52:45;6.50;99.90
20081;DHT22;10200;49.232;9.222;2024-02-14T06:55:11;6.50;99.90
20081;DHT22;10200;49.232;9.222;2024-02-14T06:57:36;6.50;99.90
20081;DHT22;10200;49.232;9.222;2024-02-14T07:00:03;6.60;99.90
20081;DHT22;10200;49.232;9.222;2024-02-14T07:02:31;6.60;99.90
20081;DHT22;10200;49.232;9.222;2024-02-14T07:04:57;6.60;99.90
20081;DHT22;10200;49.232;9.222;2024-02-14T07:07:22;6.70;99.90
20081;DHT22;10200;49.232;9.222;2024-02-14T07:09:48;6.70;99.90
20081;DHT22;10200;49.232;9.222;2024-02-14T07:12:14;6.60;99.90
20081;DHT22;10200;49.232;9.222;2024-02-14T07:14:39;6.70;99.90
20081;DHT22;10200;49.232;9.222;2024-02-14T07:17:06;6.70;99.90
20081;DHT22;10200;49.232;9.222;2024-02-14T07:19:31;6.70;99.90
20081;DHT22;10200;49.232;9.222;2024-02-14T07:21:57;6.80;99.90
20081;DHT22;10200;49.232;9.222;2024-02-14T07:24:23;6.80;99.90
20081;DHT22;10200;49.232;9.222;2024-02-14T07:26:48;6.90;99.90
20081;DHT22;10200;49.232;9.222;2024-02-14T07:29:14;6.90;99.90
20081;DHT22;10200;49.232;9.222;2024-02-14T07:31:39;6.90;99.90
20081;DHT22;10200;49.232;9.222;2024-02-14T07:34:05;7.00;99.90
20081;DHT22;10200;49.232;9.222;2024-02-14T07:36:31;7.10;99.90
20081;DHT22;10200;49.232;9.222;2024-02-14T07:38:57;7.10;99.90
20081;DHT22;10200;49.232;9.222;2024-02-14T07:41:23;7.20;99.90
20081;DHT22;10200;49.232;9.222;2024-02-14T07:43:48;7.20;99.90
20081;DHT22;10200;49.232;9.222;2024-02-14T07:46:20;7.30;99.90
20081;DHT22;10200;49.232;9.222;2024-02-14T07:48:48;7.30;99.90
20081;DHT22;10200;49.232;9.222;2024-02-14T07:51:14;8.00;99.90
20081;DHT22;10200;49.232;9.222;2024-02-14T07:53:39;7.50;99.90
20081;DHT22;10200;49.232;9.222;2024-02-14T07:56:05;7.70;99.90
20081;DHT22;10200;49.232;9.222;2024-02-14T07:58:31;7.90;99.90
20081;DHT22;10200;49.232;9.222;2024-02-14T08:00:56;7.60;99.90
20081;DHT22;10200;49.232;9.222;2024-02-14T08:03:22;7.60;99.90
20081;DHT22;10200;49.232;9.222;2024-02-14T08:05:48;7.80;99.90
20081;DHT22;10200;49.232;9.222;2024-02-14T08:08:13;7.80;99.90
20081;DHT22;10200;49.232;9.222;2024-02-14T08:10:39;7.90;99.90
20081;DHT22;10200;49.232;9.222;2024-02-14T08:13:05;7.90;99.90
20081;DHT22;10200;49.232;9.222;2024-02-14T08:15:30;8.00;99.90
20081;DHT22;10200;49.232;9.222;2024-02-14T08:17:56;8.10;99.90
20081;DHT22;10200;49.232;9.222;2024-02-14T08:20:22;8.10;99.90
20081;DHT22;10200;49.232;9.222;2024-02-14T08:22:49;8.20;99.90
20081;DHT22;10200;49.232;9.222;2024-02-14T08:25:14;8.20;99.90
20081;DHT22;10200;49.232;9.222;2024-02-14T08:27:41;8.20;99.90
20081;DHT22;10200;49.232;9.222;2024-02-14T08:30:07;8.20;99.90
20081;DHT22;10200;49.232;9.222;2024-02-14T08:32:34;8.20;99.90
20081;DHT22;10200;49.232;9.222;2024-02-14T08:35:00;8.30;99.90
20081;DHT22;10200;49.232;9.222;2024-02-14T08:37:26;8.30;99.90
20081;DHT22;10200;49.232;9.222;2024-02-14T08:39:52;8.40;99.90
20081;DHT22;10200;49.232;9.222;2024-02-14T08:42:18;8.40;99.90
20081;DHT22;10200;49.232;9.222;2024-02-14T08:44:44;8.40;99.90
20081;DHT22;10200;49.232;9.222;2024-02-14T08:47:09;8.50;99.90
20081;DHT22;10200;49.232;9.222;2024-02-14T08:49:36;8.50;99.90
20081;DHT22;10200;49.232;9.222;2024-02-14T08:52:02;8.50;99.90
20081;DHT22;10200;49.232;9.222;2024-02-14T08:54:28;8.50;99.90
20081;DHT22;10200;49.232;9.222;2024-02-14T08:56:54;8.50;99.90
20081;DHT22;10200;49.232;9.222;2024-02-14T08:59:21;8.50;99.90
20081;DHT22;10200;49.232;9.222;2024-02-14T09:01:47;8.50;99.90
20081;DHT22;10200;49.232;9.222;2024-02-14T09:04:13;8.50;99.90
20081;DHT22;10200;49.232;9.222;2024-02-14T09:06:39;8.50;99.90
20081;DHT22;10200;49.232;9.222;2024-02-14T09:09:06;8.50;99.90
20081;DHT22;10200;49.232;9.222;2024-02-14T09:11:32;8.60;99.90
20081;DHT22;10200;49.232;9.222;2024-02-14T09:13:58;8.60;99.90
20081;DHT22;10200;49.232;9.222;2024-02-14T09:16:30;8.70;99.90
20081;DHT22;10200;49.232;9.222;2024-02-14T09:18:56;8.70;99.90
20081;DHT22;10200;49.232;9.222;2024-02-14T09:21:23;8.80;99.90
20081;DHT22;10200;49.232;9.222;2024-02-14T09:23:48;8.90;99.90
20081;DHT22;10200;49.232;9.222;2024-02-14T09:26:14;9.00;99.90
20081;DHT22;10200;49.232;9.222;2024-02-14T09:28:42;9.10;99.90
20081;DHT22;10200;49.232;9.222;2024-02-14T09:31:08;9.20;99.90
20081;DHT22;10200;49.232;9.222;2024-02-14T09:33:36;9.30;99.90
20081;DHT22;10200;49.232;9.222;2024-02-14T09:36:05;9.40;99.90
20081;DHT22;10200;49.232;9.222;2024-02-14T09:38:31;9.50;99.90
20081;DHT22;10200;49.232;9.222;2024-02-14T09:41:15;9.60;99.90
20081;DHT22;10200;49.232;9.222;2024-02-14T09:43:45;9.60;99.90
20081;DHT22;10200;49.232;9.222;2024-02-14T09:46:15;9.70;99.90
20081;DHT22;10200;49.232;9.222;2024-02-14T09:48:45;9.80;99.90
20081;DHT22;10200;49.232;9.222;2024-02-14T09:51:12;9.90;99.90
20081;DHT22;10200;49.232;9.222;2024-02-14T09:53:39;9.90;99.90
20081;DHT22;10200;49.232;9.222;2024-02-14T09:56:05;10.00;99.90
20081;DHT22;10200;49.232;9.222;2024-02-14T09:58:32;10.10;99.90
20081;DHT22;10200;49.232;9.222;2024-02-14T10:00:58;10.20;99.90
20081;DHT22;10200;49.232;9.222;2024-02-14T10:03:24;10.20;99.90
20081;DHT22;10200;49.232;9.222;2024-02-14T10:05:51;10.20;99.90
20081;DHT22;10200;49.232;9.222;2024-02-14T10:08:18;10.20;99.90
20081;DHT22;10200;49.232;9.222;2024-02-14T10:10:44;10.20;99.90
20081;DHT22;10200;49.232;9.222;2024-02-14T10:13:11;10.30;99.90
20081;DHT22;10200;49.232;9.222;2024-02-14T10:15:36;10.50;99.90
20081;DHT22;10200;49.232;9.222;2024-02-14T10:18:02;10.50;99.90
20081;DHT22;10200;49.232;9.222;2024-02-14T10:20:29;10.50;99.90
20081;DHT22;10200;49.232;9.222;2024-02-14T10:23:05;10.60;99.90
20081;DHT22;10200;49.232;9.222;2024-02-14T10:25:31;10.70;99.90
20081;DHT22;10200;49.232;9.222;2024-02-14T10:28:06;10.80;99.90
20081;DHT22;10200;49.232;9.222;2024-02-14T10:30:37;10.90;99.90
20081;DHT22;10200;49.232;9.222;2024-02-14T10:33:06;11.00;99.90
20081;DHT22;10200;49.232;9.222;2024-02-14T10:35:34;11.10;99.70
20081;DHT22;10200;49.232;9.222;2024-02-14T10:38:02;11.10;99.50
20081;DHT22;10200;49.232;9.222;2024-02-14T10:40:29;11.10;99.30
20081;DHT22;10200;49.232;9.222;2024-02-14T10:42:57;11.10;98.50
20081;DHT22;10200;49.232;9.222;2024-02-14T10:45:24;11.10;98.10
20081;DHT22;10200;49.232;9.222;2024-02-14T10:47:51;11.00;98.00
20081;DHT22;10200;49.232;9.222;2024-02-14T10:50:21;11.00;98.30
20081;DHT22;10200;49.232;9.222;2024-02-14T10:52:48;11.00;98.80
20081;DHT22;10200;49.232;9.222;2024-02-14T10:55:16;11.30;98.80
20081;DHT22;10200;49.232;9.222;2024-02-14T10:57:43;11.00;98.80
20081;DHT22;10200;49.232;9.222;2024-02-14T11:00:10;11.00;99.00
20081;DHT22;10200;49.232;9.222;2024-02-14T11:02:39;11.00;99.10
20081;DHT22;10200;49.232;9.222;2024-02-14T11:05:05;11.00;99.40
20081;DHT22;10200;49.232;9.222;2024-02-14T11:07:32;10.90;99.40
20081;DHT22;10200;49.232;9.222;2024-02-14T11:10:06;11.00;99.70
20081;DHT22;10200;49.232;9.222;2024-02-14T11:12:36;11.00;99.90
20081;DHT22;10200;49.232;9.222;2024-02-14T11:17:45;11.10;99.90
20081;DHT22;10200;49.232;9.222;2024-02-14T11:20:30;11.20;99.90
20081;DHT22;10200;49.232;9.222;2024-02-14T11:23:06;11.20;99.90
20081;DHT22;10200;49.232;9.222;2024-02-14T11:25:36;11.20;99.90
20081;DHT22;10200;49.232;9.222;2024-02-14T11:28:19;11.30;99.90
20081;DHT22;10200;49.232;9.222;2024-02-14T11:30:49;11.20;99.90
20081;DHT22;10200;49.232;9.222;2024-02-14T11:35:41;11.30;99.90
20081;DHT22;10200;49.232;9.222;2024-02-14T11:38:08;11.30;99.90
20081;DHT22;10200;49.232;9.222;2024-02-14T11:40:37;11.30;99.90
20081;DHT22;10200;49.232;9.222;2024-02-14T11:45:39;11.40;99.90
20081;DHT22;10200;49.232;9.222;2024-02-14T11:48:08;11.40;99.90
20081;DHT22;10200;49.232;9.222;2024-02-14T11:50:34;11.50;99.90
20081;DHT22;10200;49.232;9.222;2024-02-14T11:53:00;11.60;99.90
20081;DHT22;10200;49.232;9.222;2024-02-14T11:55:30;11.70;99.90
20081;DHT22;10200;49.232;9.222;2024-02-14T11:57:57;11.70;99.90
20081;DHT22;10200;49.232;9.222;2024-02-14T12:00:23;12.20;99.90
20081;DHT22;10200;49.232;9.222;2024-02-14T12:05:17;12.00;99.90
20081;DHT22;10200;49.232;9.222;2024-02-14T12:07:43;12.10;99.90
20081;DHT22;10200;49.232;9.222;2024-02-14T12:10:09;12.30;99.90
20081;DHT22;10200;49.232;9.222;2024-02-14T12:12:35;12.40;99.90
20081;DHT22;10200;49.232;9.222;2024-02-14T12:15:02;12.50;99.90
20081;DHT22;10200;49.232;9.222;2024-02-14T12:17:28;12.50;99.90
20081;DHT22;10200;49.232;9.222;2024-02-14T12:20:07;12.60;99.90
20081;DHT22;10200;49.232;9.222;2024-02-14T12:22:34;12.70;99.90
20081;DHT22;10200;49.232;9.222;2024-02-14T12:25:00;12.70;99.90
20081;DHT22;10200;49.232;9.222;2024-02-14T12:27:27;12.70;99.90
20081;DHT22;10200;49.232;9.222;2024-02-14T12:29:52;12.70;99.90
20081;DHT22;10200;49.232;9.222;2024-02-14T12:32:18;12.70;99.90
20081;DHT22;10200;49.232;9.222;2024-02-14T12:34:44;12.60;99.90
20081;DHT22;10200;49.232;9.222;2024-02-14T12:37:10;12.80;99.90
20081;DHT22;10200;49.232;9.222;2024-02-14T12:39:37;12.80;99.90
20081;DHT22;10200;49.232;9.222;2024-02-14T12:42:03;12.80;99.90
20081;DHT22;10200;49.232;9.222;2024-02-14T12:44:30;12.80;99.90
20081;DHT22;10200;49.232;9.222;2024-02-14T12:46:56;12.70;99.90
20081;DHT22;10200;49.232;9.222;2024-02-14T12:49:21;12.70;99.90
20081;DHT22;10200;49.232;9.222;2024-02-14T12:51:47;12.80;99.90
20081;DHT22;10200;49.232;9.222;2024-02-14T12:54:13;12.70;99.90
20081;DHT22;10200;49.232;9.222;2024-02-14T12:56:40;12.60;99.90
20081;DHT22;10200;49.232;9.222;2024-02-14T12:59:07;12.60;99.90
20081;DHT22;10200;49.232;9.222;2024-02-14T13:01:35;12.50;99.90
20081;DHT22;10200;49.232;9.222;2024-02-14T13:04:01;12.40;99.90
20081;DHT22;10200;49.232;9.222;2024-02-14T13:06:30;12.30;99.90
20081;DHT22;10200;49.232;9.222;2024-02-14T13:08:56;12.30;99.90
20081;DHT22;10200;49.232;9.222;2024-02-14T13:11:22;12.30;99.90
20081;DHT22;10200;49.232;9.222;2024-02-14T13:13:47;12.30;99.90
20081;DHT22;10200;49.232;9.222;2024-02-14T13:16:13;12.30;99.90
20081;DHT22;10200;49.232;9.222;2024-02-14T13:18:38;12.30;99.90
20081;DHT22;10200;49.232;9.222;2024-02-14T13:21:05;12.30;99.90
20081;DHT22;10200;49.232;9.222;2024-02-14T13:23:30;12.30;99.90
20081;DHT22;10200;49.232;9.222;2024-02-14T13:25:56;12.40;99.90
20081;DHT22;10200;49.232;9.222;2024-02-14T13:28:21;12.40;99.90
20081;DHT22;10200;49.232;9.222;2024-02-14T13:30:47;12.40;99.90
20081;DHT22;10200;49.232;9.222;2024-02-14T13:33:14;12.50;99.90
20081;DHT22;10200;49.232;9.222;2024-02-14T13:35:39;12.50;99.90
20081;DHT22;10200;49.232;9.222;2024-02-14T13:38:05;12.60;99.90
20081;DHT22;10200;49.232;9.222;2024-02-14T13:40:31;12.60;99.90
20081;DHT22;10200;49.232;9.222;2024-02-14T13:42:57;12.50;99.90
20081;DHT22;10200;49.232;9.222;2024-02-14T13:45:24;12.60;99.90
20081;DHT22;10200;49.232;9.222;2024-02-14T13:47:50;12.70;99.90
20081;DHT22;10200;49.232;9.222;2024-02-14T13:50:16;12.70;99.90
20081;DHT22;10200;49.232;9.222;2024-02-14T13:52:42;12.70;99.90
20081;DHT22;10200;49.232;9.222;2024-02-14T13:55:07;12.80;99.90
20081;DHT22;10200;49.232;9.222;2024-02-14T13:57:37;12.80;99.90
20081;DHT22;10200;49.232;9.222;2024-02-14T14:00:08;12.80;99.90
20081;DHT22;10200;49.232;9.222;2024-02-14T14:02:37;12.80;99.90
20081;DHT22;10200;49.232;9.222;2024-02-14T14:05:07;12.80;99.90
20081;DHT22;10200;49.232;9.222;2024-02-14T14:07:35;12.80;99.90
20081;DHT22;10200;49.232;9.222;2024-02-14T14:10:05;12.80;99.90
20081;DHT22;10200;49.232;9.222;2024-02-14T14:12:31;12.80;99.90
20081;DHT22;10200;49.232;9.222;2024-02-14T14:14:57;12.70;99.90
20081;DHT22;10200;49.232;9.222;2024-02-14T14:17:23;12.70;99.90
20081;DHT22;10200;49.232;9.222;2024-02-14T14:19:49;12.70;99.90
20081;DHT22;10200;49.232;9.222;2024-02-14T14:22:14;12.70;99.90
20081;DHT22;10200;49.232;9.222;2024-02-14T14:24:41;12.60;99.90
20081;DHT22;10200;49.232;9.222;2024-02-14T14:27:07;12.60;99.90
20081;DHT22;10200;49.232;9.222;2024-02-14T14:29:35;12.70;99.90
20081;DHT22;10200;49.232;9.222;2024-02-14T14:32:01;12.60;99.90
20081;DHT22;10200;49.232;9.222;2024-02-14T14:34:27;12.60;99.90
20081;DHT22;10200;49.232;9.222;2024-02-14T14:36:55;12.60;99.90
20081;DHT22;10200;49.232;9.222;2024-02-14T14:39:21;12.60;99.90
20081;DHT22;10200;49.232;9.222;2024-02-14T14:41:46;12.60;99.90
20081;DHT22;10200;49.232;9.222;2024-02-14T14:44:12;12.70;99.90
20081;DHT22;10200;49.232;9.222;2024-02-14T14:46:38;12.60;99.90
20081;DHT22;10200;49.232;9.222;2024-02-14T14:49:11;12.60;99.90
20081;DHT22;10200;49.232;9.222;2024-02-14T14:51:37;12.60;99.90
20081;DHT22;10200;49.232;9.222;2024-02-14T14:54:04;12.60;99.90
20081;DHT22;10200;49.232;9.222;2024-02-14T14:56:30;12.60;99.90
20081;DHT22;10200;49.232;9.222;2024-02-14T14:58:56;12.60;99.90
20081;DHT22;10200;49.232;9.222;2024-02-14T15:01:24;12.60;99.90
20081;DHT22;10200;49.232;9.222;2024-02-14T15:03:50;12.50;99.90
20081;DHT22;10200;49.232;9.222;2024-02-14T15:06:18;12.60;99.90
20081;DHT22;10200;49.232;9.222;2024-02-14T15:08:44;12.50;99.90
20081;DHT22;10200;49.232;9.222;2024-02-14T15:11:10;12.50;99.90
20081;DHT22;10200;49.232;9.222;2024-02-14T15:13:40;12.50;99.90
20081;DHT22;10200;49.232;9.222;2024-02-14T15:16:06;12.60;99.90
20081;DHT22;10200;49.232;9.222;2024-02-14T15:18:34;12.60;99.90
20081;DHT22;10200;49.232;9.222;2024-02-14T15:20:59;12.50;99.90
20081;DHT22;10200;49.232;9.222;2024-02-14T15:23:25;12.50;99.90
20081;DHT22;10200;49.232;9.222;2024-02-14T15:25:51;12.50;99.90
20081;DHT22;10200;49.232;9.222;2024-02-14T15:28:17;12.60;99.90
20081;DHT22;10200;49.232;9.222;2024-02-14T15:30:51;12.50;99.90
20081;DHT22;10200;49.232;9.222;2024-02-14T15:33:36;12.50;99.90
20081;DHT22;10200;49.232;9.222;2024-02-14T15:36:01;12.50;99.90
20081;DHT22;10200;49.232;9.222;2024-02-14T15:38:27;12.40;99.90
20081;DHT22;10200;49.232;9.222;2024-02-14T15:40:54;12.50;99.90
20081;DHT22;10200;49.232;9.222;2024-02-14T15:43:23;12.50;99.90
20081;DHT22;10200;49.232;9.222;2024-02-14T15:45:50;12.40;99.90